Time;durP1;ratioP1;P1;durP2;ratioP2;P2;SDS_P1;SDS_P2;PMS_P1;PMS_P2;Temp;Humidity;BMP_temperature;BMP_pressure;BME280_temperature;BME280_humidity;BME280_pressure;Samples;Min_cycle;Max_cycle;Signal;HPM_P1;HPM_P2
2022/07/07 00:01:10;;;;;;;1.73;1.40;;;20.80;53.20;;;;;;5022347;28;20477;-82
2022/07/07 00:03:39;;;;;;;1.30;1.20;;;20.80;52.50;;;;;;5021337;28;20465;-82
2022/07/07 00:06:07;;;;;;;3.73;1.20;;;20.80;51.20;;;;;;5019264;28;20452;-81
2022/07/07 00:08:35;;;;;;;1.20;1.10;;;20.70;51.60;;;;;;5023255;28;20879;-81
2022/07/07 00:11:03;;;;;;;1.87;1.20;;;20.70;51.00;;;;;;5018797;28;20487;-81
2022/07/07 00:13:31;;;;;;;1.70;1.17;;;20.70;51.50;;;;;;5024430;28;20463;-81
2022/07/07 00:16:00;;;;;;;1.53;1.20;;;20.70;52.50;;;;;;5023362;28;20480;-81
2022/07/07 00:18:29;;;;;;;3.90;1.63;;;20.70;52.90;;;;;;5026726;28;20452;-82
2022/07/07 00:20:58;;;;;;;1.27;1.17;;;20.70;52.80;;;;;;5027251;28;20571;-82
2022/07/07 00:23:26;;;;;;;1.53;1.27;;;20.70;54.10;;;;;;5025140;28;20471;-82
2022/07/07 00:25:55;;;;;;;2.73;1.27;;;20.60;53.40;;;;;;5025054;28;20432;-82
2022/07/07 00:28:23;;;;;;;1.67;1.07;;;20.60;53.70;;;;;;5025308;28;20468;-81
2022/07/07 00:30:51;;;;;;;2.40;1.57;;;20.60;53.80;;;;;;5026607;28;20453;-81
2022/07/07 00:33:19;;;;;;;1.00;1.00;;;20.60;54.70;;;;;;5028499;28;20472;-82
2022/07/07 00:35:49;;;;;;;1.30;1.20;;;20.60;55.00;;;;;;5029432;28;20522;-81
2022/07/07 00:38:17;;;;;;;1.90;1.40;;;20.50;54.80;;;;;;5030571;28;20989;-81
2022/07/07 00:40:50;;;;;;;1.07;1.00;;;20.60;54.20;;;;;;5027147;28;20459;-81
2022/07/07 00:43:21;;;;;;;1.57;1.20;;;20.50;51.90;;;;;;5026804;28;20479;-81
2022/07/07 00:45:52;;;;;;;1.20;1.10;;;20.50;51.10;;;;;;5023630;28;20452;-81
2022/07/07 00:48:21;;;;;;;1.30;1.20;;;20.50;51.10;;;;;;5025855;28;20456;-82
2022/07/07 00:50:51;;;;;;;1.60;1.00;;;20.50;51.00;;;;;;5025292;28;20464;-82
2022/07/07 00:53:19;;;;;;;1.17;1.17;;;20.20;53.90;;;;;;5024208;28;20464;-81
2022/07/07 00:55:47;;;;;;;4.03;1.53;;;20.40;52.30;;;;;;5029427;28;20500;-81
2022/07/07 00:58:16;;;;;;;1.30;1.20;;;20.40;53.10;;;;;;5021834;28;20480;-80
2022/07/07 01:00:44;;;;;;;1.00;0.90;;;20.40;54.60;;;;;;5026504;28;20544;-81
2022/07/07 01:03:13;;;;;;;1.27;1.17;;;20.40;54.80;;;;;;5021499;28;20464;-81
2022/07/07 01:05:46;;;;;;;1.43;1.30;;;20.40;52.90;;;;;;5027249;28;20479;-81
2022/07/07 01:08:16;;;;;;;2.00;1.23;;;20.40;52.90;;;;;;5024779;28;20456;-81
2022/07/07 01:10:45;;;;;;;1.33;1.23;;;20.40;52.70;;;;;;5024354;28;20453;-81
2022/07/07 01:13:14;;;;;;;1.27;1.17;;;20.40;52.90;;;;;;5024853;28;20459;-81
2022/07/07 01:15:42;;;;;;;1.73;1.20;;;20.40;55.70;;;;;;5023119;28;20476;-80
2022/07/07 01:18:10;;;;;;;1.30;1.10;;;20.40;55.90;;;;;;5024540;28;20465;-81
2022/07/07 01:20:43;;;;;;;1.97;1.20;;;20.40;57.00;;;;;;5025952;28;20458;-81
2022/07/07 01:23:13;;;;;;;1.20;1.10;;;20.40;52.20;;;;;;5025186;28;20472;-81
2022/07/07 01:25:41;;;;;;;1.70;1.20;;;20.40;56.20;;;;;;5027675;28;21027;-81
2022/07/07 01:28:10;;;;;;;1.60;1.50;;;20.40;74.30;;;;;;5024173;28;20456;-81
2022/07/07 01:30:38;;;;;;;1.17;1.07;;;20.40;55.80;;;;;;5025454;28;20452;-81
2022/07/07 01:33:06;;;;;;;1.90;1.20;;;20.40;56.80;;;;;;5019840;28;20875;-81
2022/07/07 01:35:34;;;;;;;1.53;1.43;;;20.40;57.00;;;;;;5026149;28;20488;-81
2022/07/07 01:38:03;;;;;;;1.93;1.30;;;20.40;57.10;;;;;;5025007;28;20463;-81
2022/07/07 01:40:32;;;;;;;1.40;1.30;;;20.40;59.10;;;;;;5027076;28;20441;-81
2022/07/07 01:43:00;;;;;;;1.30;1.20;;;20.40;59.30;;;;;;5022970;28;21196;-81
2022/07/07 01:45:28;;;;;;;1.73;1.10;;;20.30;57.60;;;;;;5024900;28;20531;-81
2022/07/07 01:47:57;;;;;;;2.10;1.30;;;20.40;58.90;;;;;;5023953;28;20487;-81
2022/07/07 01:50:25;;;;;;;1.37;1.20;;;20.40;61.40;;;;;;5020240;28;20464;-81
2022/07/07 01:52:53;;;;;;;1.47;1.27;;;20.40;59.70;;;;;;5025554;28;20484;-81
2022/07/07 01:55:21;;;;;;;1.30;1.20;;;20.40;58.50;;;;;;5025611;28;20493;-83
2022/07/07 01:57:51;;;;;;;1.10;1.00;;;20.40;60.80;;;;;;5022764;28;20464;-80
2022/07/07 02:00:19;;;;;;;1.20;1.10;;;20.40;60.00;;;;;;5026121;28;20448;-80
2022/07/07 02:02:47;;;;;;;1.87;1.40;;;20.40;59.70;;;;;;5026549;28;20980;-81
2022/07/07 02:05:16;;;;;;;1.40;1.30;;;20.30;59.50;;;;;;5024247;28;20460;-81
2022/07/07 02:07:45;;;;;;;1.50;1.40;;;20.20;58.30;;;;;;5021252;28;20980;-81
2022/07/07 02:11:12;;;;;;;2.10;1.20;;;20.20;74.60;;;;;;5024078;28;20464;-81
2022/07/07 02:13:03;;;;;;;1.70;1.17;;;20.20;57.20;;;;;;5023720;28;20491;-81
2022/07/07 02:15:32;;;;;;;1.30;1.20;;;20.20;57.50;;;;;;5021788;28;20484;-80
2022/07/07 02:18:01;;;;;;;1.30;1.20;;;20.20;54.70;;;;;;5022719;28;20467;-80
2022/07/07 02:20:29;;;;;;;1.70;1.53;;;20.20;56.50;;;;;;5020048;28;20462;-81
2022/07/07 02:22:57;;;;;;;1.63;0.93;;;20.20;57.10;;;;;;5023370;28;20468;-80
2022/07/07 02:25:25;;;;;;;1.30;1.20;;;20.30;56.40;;;;;;5023005;28;20488;-81
2022/07/07 02:27:54;;;;;;;1.57;1.17;;;20.20;55.10;;;;;;5026720;28;20479;-82
2022/07/07 02:30:24;;;;;;;1.17;1.07;;;20.20;55.40;;;;;;5022208;28;20476;-82
2022/07/07 02:32:52;;;;;;;1.80;1.00;;;20.30;55.40;;;;;;5023504;28;20484;-82
2022/07/07 02:35:21;;;;;;;1.30;1.20;;;20.30;54.70;;;;;;5021281;28;21273;-82
2022/07/07 02:37:49;;;;;;;0.90;0.90;;;20.30;54.00;;;;;;5022432;28;20547;-81
2022/07/07 02:40:17;;;;;;;1.50;1.07;;;20.30;55.40;;;;;;5023210;28;20475;-80
2022/07/07 02:42:46;;;;;;;2.60;1.13;;;20.30;55.00;;;;;;5023917;28;21026;-80
2022/07/07 02:45:14;;;;;;;1.27;0.90;;;20.30;54.40;;;;;;5025201;28;20492;-81
2022/07/07 02:47:44;;;;;;;1.00;0.90;;;20.30;55.70;;;;;;5025573;28;20826;-81
2022/07/07 02:50:12;;;;;;;1.07;1.00;;;20.20;56.00;;;;;;5026664;28;20456;-81
2022/07/07 02:52:40;;;;;;;0.80;0.80;;;20.30;56.10;;;;;;5021740;28;20480;-81
2022/07/07 02:55:09;;;;;;;1.10;1.00;;;20.30;56.70;;;;;;5022794;28;20458;-81
2022/07/07 02:57:37;;;;;;;2.30;1.33;;;20.30;53.30;;;;;;5023558;28;20485;-81
2022/07/07 03:00:12;;;;;;;1.43;1.10;;;20.30;57.30;;;;;;5027046;28;20959;-81
2022/07/07 03:02:41;;;;;;;1.27;1.17;;;20.30;54.10;;;;;;5024887;28;20487;-81
2022/07/07 03:05:12;;;;;;;1.07;1.03;;;20.30;56.90;;;;;;5020720;28;20538;-81
2022/07/07 03:07:40;;;;;;;3.40;1.13;;;20.30;53.70;;;;;;5023874;28;20868;-82
2022/07/07 03:10:09;;;;;;;3.83;1.17;;;20.30;55.00;;;;;;5024026;28;20452;-81
2022/07/07 03:12:37;;;;;;;1.43;0.90;;;20.20;52.30;;;;;;5025261;28;20499;-80
2022/07/07 03:15:06;;;;;;;1.80;0.93;;;20.20;54.40;;;;;;5022145;28;20456;-81
2022/07/07 03:17:34;;;;;;;1.13;1.00;;;20.00;49.10;;;;;;5024380;28;20490;-81
2022/07/07 03:20:04;;;;;;;2.03;1.10;;;20.00;49.70;;;;;;5023973;28;20456;-81
2022/07/07 03:22:33;;;;;;;2.37;0.97;;;19.90;48.00;;;;;;5020920;28;20465;-81
2022/07/07 03:25:02;;;;;;;1.27;0.87;;;19.90;52.00;;;;;;5023695;28;20459;-81
2022/07/07 03:27:30;;;;;;;1.73;1.27;;;19.90;51.60;;;;;;5020769;28;20487;-81
2022/07/07 03:29:58;;;;;;;1.20;0.90;;;20.00;50.30;;;;;;5021654;28;20448;-80
2022/07/07 03:32:27;;;;;;;2.50;1.20;;;20.00;51.80;;;;;;5022227;28;20554;-81
2022/07/07 03:34:55;;;;;;;1.10;1.00;;;20.10;53.20;;;;;;5022316;28;20488;-81
2022/07/07 03:37:24;;;;;;;1.00;0.90;;;20.10;52.60;;;;;;5021457;28;20491;-81
2022/07/07 03:39:53;;;;;;;1.50;1.40;;;20.10;52.20;;;;;;5025360;28;20902;-81
2022/07/07 03:42:22;;;;;;;1.50;1.00;;;19.90;51.80;;;;;;5023884;28;20575;-81
2022/07/07 03:44:50;;;;;;;1.53;1.10;;;20.00;50.90;;;;;;5021874;28;20460;-81
2022/07/07 03:47:18;;;;;;;1.27;1.17;;;20.00;52.80;;;;;;5024679;28;20502;-80
2022/07/07 03:49:49;;;;;;;1.10;1.10;;;20.10;53.60;;;;;;5023487;28;20448;-81
2022/07/07 03:52:18;;;;;;;2.20;1.00;;;20.20;53.10;;;;;;5026705;28;20469;-81
2022/07/07 03:54:46;;;;;;;1.10;1.00;;;20.20;53.50;;;;;;5028469;28;20460;-80
2022/07/07 03:57:15;;;;;;;1.50;1.30;;;20.20;53.10;;;;;;5028230;28;20495;-81
2022/07/07 03:59:44;;;;;;;2.40;1.27;;;20.20;54.50;;;;;;5024264;28;20453;-81
2022/07/07 04:02:12;;;;;;;2.33;1.10;;;20.20;54.70;;;;;;5022913;28;21532;-82
2022/07/07 04:04:40;;;;;;;1.40;1.30;;;20.20;55.40;;;;;;5020973;28;20543;-81
2022/07/07 04:07:08;;;;;;;1.83;1.20;;;20.20;56.20;;;;;;5022695;28;20949;-81
2022/07/07 04:09:37;;;;;;;1.03;1.03;;;20.20;56.40;;;;;;5026027;28;20456;-80
2022/07/07 04:12:06;;;;;;;1.93;1.10;;;20.10;55.60;;;;;;5024882;28;20474;-80
2022/07/07 04:14:36;;;;;;;1.13;1.00;;;20.20;53.30;;;;;;5023964;28;20452;-80
2022/07/07 04:17:05;;;;;;;1.23;1.13;;;20.10;54.70;;;;;;5025188;28;20503;-81
2022/07/07 04:19:33;;;;;;;1.53;1.07;;;20.20;53.70;;;;;;5018001;28;20956;-80
2022/07/07 04:22:02;;;;;;;1.20;1.10;;;20.20;55.20;;;;;;5026402;28;20542;-80
2022/07/07 04:24:30;;;;;;;1.30;1.20;;;20.20;56.30;;;;;;5025513;28;20539;-81
2022/07/07 04:26:58;;;;;;;2.63;1.50;;;20.10;54.60;;;;;;5024233;28;20463;-81
2022/07/07 04:29:27;;;;;;;0.90;0.90;;;20.20;55.40;;;;;;5026188;28;20448;-80
2022/07/07 04:31:56;;;;;;;1.53;1.43;;;20.20;57.30;;;;;;5026395;28;21092;-81
2022/07/07 04:34:25;;;;;;;1.40;1.30;;;20.20;57.50;;;;;;5021892;28;20465;-78
2022/07/07 04:36:53;;;;;;;1.57;1.30;;;20.20;58.50;;;;;;5019562;28;20484;-77
2022/07/07 04:39:22;;;;;;;1.53;1.40;;;20.10;56.60;;;;;;5029864;28;20503;-78
2022/07/07 04:41:50;;;;;;;2.50;1.60;;;20.00;54.00;;;;;;5032770;28;20480;-79
2022/07/07 04:44:18;;;;;;;2.60;1.50;;;19.90;55.20;;;;;;5026739;28;20499;-79
2022/07/07 04:46:46;;;;;;;1.40;1.30;;;19.90;52.90;;;;;;5015560;28;20592;-80
2022/07/07 04:49:16;;;;;;;1.47;1.27;;;19.70;52.20;;;;;;5025229;28;20456;-78
2022/07/07 04:51:47;;;;;;;1.20;1.10;;;19.60;49.70;;;;;;5023404;28;20622;-78
2022/07/07 04:54:16;;;;;;;1.40;1.30;;;19.60;48.10;;;;;;5022419;28;20839;-80
2022/07/07 04:56:44;;;;;;;2.07;1.27;;;19.60;49.00;;;;;;5022321;28;20449;-78
2022/07/07 04:59:13;;;;;;;3.73;1.23;;;19.60;50.80;;;;;;5023621;28;20476;-77
2022/07/07 05:01:41;;;;;;;1.40;1.30;;;19.40;47.90;;;;;;5018712;28;20475;-77
2022/07/07 05:04:09;;;;;;;1.40;1.30;;;19.40;49.50;;;;;;5029974;28;20437;-77
2022/07/07 05:06:39;;;;;;;2.13;1.50;;;19.40;48.10;;;;;;5026951;28;20449;-83
2022/07/07 05:09:07;;;;;;;1.73;1.27;;;19.40;50.50;;;;;;5033120;28;20441;-84
2022/07/07 05:11:35;;;;;;;1.70;1.27;;;19.40;65.40;;;;;;5029166;28;20473;-84
2022/07/07 05:14:04;;;;;;;1.17;1.07;;;19.60;51.40;;;;;;5031985;28;20460;-85
2022/07/07 05:16:32;;;;;;;1.20;1.10;;;19.70;51.00;;;;;;5028206;28;20808;-84
2022/07/07 05:19:01;;;;;;;1.30;1.20;;;19.60;51.40;;;;;;5029838;28;21068;-84
2022/07/07 05:21:29;;;;;;;2.37;1.10;;;19.60;52.00;;;;;;5032379;28;20456;-85
2022/07/07 05:23:58;;;;;;;1.47;1.10;;;19.70;52.80;;;;;;5059601;28;20825;-85
2022/07/07 05:26:27;;;;;;;1.73;1.63;;;19.90;54.50;;;;;;5025904;28;20471;-86
2022/07/07 05:28:55;;;;;;;1.23;1.13;;;20.00;54.70;;;;;;5023835;28;20453;-86
2022/07/07 05:31:23;;;;;;;1.60;1.37;;;19.90;53.00;;;;;;5028711;28;20855;-86
2022/07/07 05:33:52;;;;;;;1.50;1.40;;;19.90;54.40;;;;;;5025798;28;20460;-83
2022/07/07 05:36:20;;;;;;;1.30;1.20;;;20.00;53.80;;;;;;5032357;28;20451;-83
2022/07/07 05:38:49;;;;;;;1.20;1.10;;;20.00;56.10;;;;;;5028857;28;20460;-81
2022/07/07 05:41:19;;;;;;;1.27;1.17;;;20.00;54.60;;;;;;5024649;28;20484;-82
2022/07/07 05:43:48;;;;;;;1.43;1.20;;;20.00;56.00;;;;;;5029966;28;20892;-84
2022/07/07 05:46:16;;;;;;;1.67;1.00;;;20.00;54.50;;;;;;5030981;28;20476;-81
2022/07/07 05:48:44;;;;;;;1.20;1.10;;;20.00;55.10;;;;;;5027982;28;20503;-82
2022/07/07 05:51:13;;;;;;;1.40;1.17;;;20.00;54.40;;;;;;5026558;28;20516;-83
2022/07/07 05:53:41;;;;;;;2.17;1.03;;;20.00;54.00;;;;;;5026833;28;20464;-83
2022/07/07 05:56:09;;;;;;;1.20;1.10;;;20.00;54.40;;;;;;5022543;28;20457;-82
2022/07/07 05:58:40;;;;;;;1.80;1.03;;;20.10;55.50;;;;;;5023828;28;20480;-82
2022/07/07 06:01:08;;;;;;;1.00;1.00;;;20.10;58.30;;;;;;5027153;28;20469;-82
2022/07/07 06:03:36;;;;;;;1.10;1.00;;;20.30;59.10;;;;;;5057469;28;20444;-82
2022/07/07 06:06:05;;;;;;;1.07;0.97;;;20.20;56.30;;;;;;5026611;28;20469;-82
2022/07/07 06:08:33;;;;;;;1.40;1.30;;;20.20;57.30;;;;;;5025581;28;20461;-81
2022/07/07 06:11:01;;;;;;;1.57;1.00;;;20.30;59.10;;;;;;5041640;28;20472;-82
2022/07/07 06:13:30;;;;;;;1.10;1.00;;;20.40;60.60;;;;;;5032798;28;20445;-81
2022/07/07 06:16:00;;;;;;;1.57;1.10;;;20.40;60.90;;;;;;5018019;28;20952;-84
2022/07/07 06:18:28;;;;;;;1.20;1.10;;;20.40;58.80;;;;;;5032263;28;20827;-82
2022/07/07 06:20:56;;;;;;;1.43;1.10;;;20.40;59.70;;;;;;5026825;28;20448;-85
2022/07/07 06:23:25;;;;;;;1.40;1.30;;;20.40;63.40;;;;;;5032310;28;20693;-81
2022/07/07 06:25:53;;;;;;;1.20;1.10;;;20.40;62.30;;;;;;5027483;28;20452;-79
2022/07/07 06:28:22;;;;;;;1.20;1.10;;;20.50;63.50;;;;;;5021822;28;20869;-81
2022/07/07 06:30:54;;;;;;;1.90;1.23;;;20.50;65.70;;;;;;5022563;28;20499;-81
2022/07/07 06:33:23;;;;;;;1.20;0.90;;;20.70;69.00;;;;;;5020287;28;20523;-81
2022/07/07 06:35:52;;;;;;;1.63;1.20;;;20.70;63.70;;;;;;5027865;28;20869;-80
2022/07/07 06:38:21;;;;;;;1.53;1.20;;;20.60;64.40;;;;;;5027622;28;20464;-80
2022/07/07 06:40:49;;;;;;;1.07;0.97;;;20.70;65.90;;;;;;5024767;28;20465;-82
2022/07/07 06:43:18;;;;;;;2.30;1.10;;;20.70;66.10;;;;;;5030373;28;20495;-81
2022/07/07 06:45:46;;;;;;;1.20;1.00;;;20.70;64.60;;;;;;5060106;28;20464;-82
2022/07/07 06:48:14;;;;;;;1.67;1.30;;;20.70;63.80;;;;;;5029321;28;20452;-86
2022/07/07 06:50:45;;;;;;;1.30;1.20;;;20.80;64.90;;;;;;5025538;28;20448;-86
2022/07/07 06:53:13;;;;;;;2.63;1.20;;;20.80;64.50;;;;;;5054867;28;20522;-85
2022/07/07 06:55:42;;;;;;;1.43;1.33;;;20.90;66.20;;;;;;5030366;28;20456;-84
2022/07/07 06:58:10;;;;;;;1.27;1.07;;;20.90;67.80;;;;;;5031824;28;20476;-84
2022/07/07 07:00:39;;;;;;;1.33;1.20;;;21.00;68.70;;;;;;5031064;28;20448;-84
2022/07/07 07:03:07;;;;;;;1.00;1.00;;;21.10;68.40;;;;;;5030879;28;20449;-84
2022/07/07 07:05:36;;;;;;;3.17;1.03;;;21.30;70.90;;;;;;5032626;28;20449;-85
2022/07/07 07:08:07;;;;;;;1.23;1.13;;;21.30;69.40;;;;;;5032537;28;20437;-86
2022/07/07 07:10:35;;;;;;;1.33;1.03;;;21.30;69.70;;;;;;5032608;28;20436;-85
2022/07/07 07:13:04;;;;;;;5.23;1.10;;;21.30;70.90;;;;;;5041741;28;20468;-85
2022/07/07 07:15:32;;;;;;;1.83;1.23;;;21.20;65.30;;;;;;5045336;28;20467;-85
2022/07/07 07:18:01;;;;;;;0.90;0.87;;;21.20;68.40;;;;;;5032207;28;20807;-84
2022/07/07 07:20:29;;;;;;;1.20;1.10;;;21.20;69.80;;;;;;5029924;28;20962;-83
2022/07/07 07:22:57;;;;;;;2.20;1.30;;;21.20;89.80;;;;;;5027562;28;20478;-84
2022/07/07 07:25:27;;;;;;;2.90;1.30;;;21.20;68.00;;;;;;5043619;28;20534;-85
2022/07/07 07:27:56;;;;;;;2.40;1.00;;;21.10;79.50;;;;;;5068091;28;21176;-84
2022/07/07 07:30:24;;;;;;;1.57;0.90;;;21.20;70.60;;;;;;5035924;28;20457;-84
2022/07/07 07:32:52;;;;;;;1.17;1.03;;;21.30;73.00;;;;;;5035810;28;20511;-84
2022/07/07 07:35:21;;;;;;;3.10;1.20;;;21.90;76.70;;;;;;5046744;28;20455;-84
2022/07/07 07:37:49;;;;;;;2.30;1.40;;;21.50;78.80;;;;;;5035760;28;20936;-82
2022/07/07 07:40:17;;;;;;;2.70;1.27;;;21.60;79.00;;;;;;5026994;28;20489;-85
2022/07/07 07:42:47;;;;;;;1.13;1.10;;;21.80;81.20;;;;;;5034226;28;20483;-85
2022/07/07 07:45:16;;;;;;;2.50;1.50;;;21.90;80.50;;;;;;5044543;28;20470;-84
2022/07/07 07:47:46;;;;;;;1.23;1.10;;;21.90;85.00;;;;;;5035202;28;20552;-85
2022/07/07 07:50:17;;;;;;;1.50;1.23;;;22.00;81.90;;;;;;5035793;28;20452;-85
2022/07/07 07:52:46;;;;;;;1.77;1.30;;;21.90;79.20;;;;;;5035416;28;20475;-85
2022/07/07 07:55:16;;;;;;;1.27;1.17;;;21.90;81.80;;;;;;5042123;28;20459;-85
2022/07/07 07:57:44;;;;;;;1.00;1.00;;;22.00;82.30;;;;;;5035241;28;20830;-85
2022/07/07 08:00:16;;;;;;;3.03;1.67;;;22.10;86.00;;;;;;5035548;28;20581;-84
2022/07/07 08:02:45;;;;;;;2.00;1.63;;;22.10;83.00;;;;;;5034368;28;20475;-84
2022/07/07 08:05:15;;;;;;;1.80;1.10;;;22.10;83.60;;;;;;5040692;28;20451;-85
2022/07/07 08:07:45;;;;;;;1.90;1.30;;;22.20;84.00;;;;;;5042227;28;20478;-84
2022/07/07 08:10:16;;;;;;;1.30;1.20;;;22.20;85.90;;;;;;5035307;28;20445;-85
2022/07/07 08:12:47;;;;;;;1.73;1.10;;;22.20;85.90;;;;;;5034290;28;20468;-85
2022/07/07 08:15:19;;;;;;;1.20;1.10;;;22.20;84.90;;;;;;5039380;28;20456;-84
2022/07/07 08:17:49;;;;;;;6.20;1.57;;;22.20;86.40;;;;;;5035653;28;20448;-85
2022/07/07 08:20:18;;;;;;;1.80;1.13;;;22.20;87.40;;;;;;5034858;28;20582;-84
2022/07/07 08:22:47;;;;;;;1.60;1.50;;;22.20;86.90;;;;;;5034875;28;20472;-85
2022/07/07 08:25:16;;;;;;;2.03;1.40;;;22.20;89.00;;;;;;5047193;28;20458;-85
2022/07/07 08:27:46;;;;;;;3.43;2.47;;;22.10;86.70;;;;;;5033478;28;20464;-84
2022/07/07 08:30:17;;;;;;;2.13;1.30;;;22.00;83.70;;;;;;5034791;28;20538;-86
2022/07/07 08:32:47;;;;;;;2.13;1.70;;;22.00;84.50;;;;;;5029729;28;21084;-85
2022/07/07 08:35:16;;;;;;;1.67;1.57;;;22.00;88.00;;;;;;5040185;28;20521;-85
2022/07/07 08:37:46;;;;;;;1.50;1.40;;;22.10;86.80;;;;;;5033702;28;20506;-84
2022/07/07 08:40:15;;;;;;;1.90;1.27;;;22.10;86.70;;;;;;5034773;28;20820;-85
2022/07/07 08:42:44;;;;;;;1.50;1.40;;;22.10;87.80;;;;;;5033693;28;20483;-85
2022/07/07 08:45:13;;;;;;;7.13;1.63;;;22.00;85.80;;;;;;5038269;28;20487;-85
2022/07/07 08:47:43;;;;;;;1.60;1.30;;;22.00;89.10;;;;;;5035807;28;20463;-84
2022/07/07 08:50:16;;;;;;;1.83;1.47;;;22.00;89.20;;;;;;5039028;28;20455;-85
2022/07/07 08:52:47;;;;;;;1.60;1.50;;;22.00;88.50;;;;;;5034440;28;20556;-85
2022/07/07 08:55:17;;;;;;;2.17;1.43;;;22.00;88.80;;;;;;5034447;28;20459;-84
2022/07/07 08:57:45;;;;;;;5.50;1.40;;;22.10;88.60;;;;;;5026272;28;20551;-85
2022/07/07 09:00:14;;;;;;;3.00;2.20;;;22.10;91.30;;;;;;5033899;28;20484;-84
2022/07/07 09:02:44;;;;;;;2.27;1.97;;;22.20;91.40;;;;;;5031133;28;20472;-85
2022/07/07 09:05:12;;;;;;;2.27;1.80;;;22.10;93.00;;;;;;5033638;28;21020;-84
2022/07/07 09:07:48;;;;;;;3.33;2.10;;;22.20;93.00;;;;;;5034447;28;20475;-85
2022/07/07 09:10:34;;;;;;;2.50;2.30;;;22.20;93.10;;;;;;5034371;28;20484;-85
2022/07/07 09:13:02;;;;;;;1.80;1.70;;;22.20;93.00;;;;;;5034443;28;20476;-84
2022/07/07 09:15:40;;;;;;;3.20;2.23;;;22.30;95.30;;;;;;5030106;28;20463;-85
2022/07/07 09:18:09;;;;;;;1.77;1.67;;;22.40;95.20;;;;;;5019636;28;20475;-84
2022/07/07 09:20:39;;;;;;;2.00;1.90;;;22.40;96.90;;;;;;5046314;28;20662;-85
2022/07/07 09:23:08;;;;;;;3.87;2.33;;;22.50;96.60;;;;;;5034333;28;20507;-85
2022/07/07 09:25:41;;;;;;;1.97;1.87;;;22.40;97.60;;;;;;5044653;28;20470;-85
2022/07/07 09:28:10;;;;;;;2.33;2.17;;;22.40;97.70;;;;;;5033880;28;20466;-85
2022/07/07 09:30:41;;;;;;;3.67;2.67;;;22.50;97.90;;;;;;5032164;28;20456;-84
2022/07/07 09:33:13;;;;;;;1.97;1.87;;;22.60;99.50;;;;;;5032141;28;20567;-86
2022/07/07 09:38:31;;;;;;;1.53;1.40;;;22.70;99.90;;;;;;5036032;28;21042;-85
2022/07/07 09:41:02;;;;;;;1.40;1.30;;;22.70;99.90;;;;;;5040665;28;20480;-85
2022/07/07 09:43:33;;;;;;;1.30;1.20;;;22.80;99.90;;;;;;5033225;28;20483;-85
2022/07/07 09:46:09;;;;;;;1.60;1.13;;;22.80;99.90;;;;;;5033526;28;20448;-84
2022/07/07 09:48:40;;;;;;;1.67;0.90;;;22.80;99.90;;;;;;5057211;28;20494;-85
2022/07/07 09:51:14;;;;;;;2.40;1.13;;;22.60;99.30;;;;;;5032115;28;20486;-85
2022/07/07 09:54:04;;;;;;;1.90;1.20;;;22.70;99.00;;;;;;5033210;28;20448;-86
2022/07/07 09:56:35;;;;;;;1.30;1.20;;;22.60;99.50;;;;;;5030076;28;20456;-86
2022/07/07 09:59:06;;;;;;;3.40;1.10;;;22.60;99.30;;;;;;5033351;28;20428;-84
2022/07/07 10:01:37;;;;;;;1.63;1.07;;;22.50;99.90;;;;;;5033235;28;20496;-85
2022/07/07 10:04:08;;;;;;;2.30;1.20;;;22.60;99.90;;;;;;5033293;28;20463;-86
2022/07/07 10:06:38;;;;;;;1.43;1.30;;;22.50;99.90;;;;;;5031493;28;20930;-85
2022/07/07 10:09:08;;;;;;;1.67;1.40;;;22.50;99.90;;;;;;5036795;28;20446;-85
2022/07/07 10:11:38;;;;;;;1.80;1.70;;;22.50;99.90;;;;;;5031819;28;20476;-85
2022/07/07 10:14:12;;;;;;;1.60;1.33;;;22.60;99.90;;;;;;5031557;28;20463;-85
2022/07/07 10:16:41;;;;;;;1.63;1.53;;;22.50;99.00;;;;;;5033055;28;20446;-85
2022/07/07 10:19:13;;;;;;;1.70;1.60;;;22.50;99.90;;;;;;5028389;28;20466;-85
2022/07/07 10:21:44;;;;;;;2.30;1.50;;;22.50;99.90;;;;;;5031698;28;21153;-85
2022/07/07 10:24:13;;;;;;;1.90;1.80;;;22.50;99.90;;;;;;5031543;28;20443;-85
2022/07/07 10:26:44;;;;;;;1.60;1.50;;;22.60;99.90;;;;;;5034389;28;20458;-84
2022/07/07 10:29:12;;;;;;;2.17;1.70;;;22.60;99.90;;;;;;5049433;28;20671;-84
2022/07/07 10:31:41;;;;;;;2.43;1.70;;;22.70;99.90;;;;;;5033445;28;20483;-85
2022/07/07 10:34:13;;;;;;;1.87;1.60;;;22.80;99.90;;;;;;5035517;28;20555;-86
2022/07/07 10:37:02;;;;;;;1.80;1.70;;;22.70;99.90;;;;;;5034456;28;20447;-84
2022/07/07 10:39:37;;;;;;;1.77;1.37;;;22.70;99.90;;;;;;5077773;28;20451;-84
2022/07/07 10:42:11;;;;;;;2.80;1.50;;;22.70;99.90;;;;;;5031716;28;20493;-84
2022/07/07 10:44:40;;;;;;;1.90;1.43;;;22.70;99.90;;;;;;5032335;28;20458;-85
2022/07/07 10:47:30;;;;;;;1.30;1.20;;;22.80;99.90;;;;;;5032466;28;20530;-84
2022/07/07 10:50:01;;;;;;;1.50;1.40;;;22.80;99.90;;;;;;5032543;28;21029;-84
2022/07/07 10:52:40;;;;;;;3.20;1.40;;;22.80;99.90;;;;;;5032048;28;20472;-84
2022/07/07 10:55:54;;;;;;;1.63;1.30;;;22.80;99.90;;;;;;5020994;28;20517;-84
2022/07/07 10:58:55;;;;;;;2.33;1.30;;;22.70;99.90;;;;;;5063863;28;20460;-84
2022/07/07 11:01:24;;;;;;;1.47;1.37;;;22.80;99.90;;;;;;5032009;28;21087;-87
2022/07/07 11:03:53;;;;;;;1.77;1.23;;;22.80;99.90;;;;;;5021303;28;20464;-84
2022/07/07 11:06:23;;;;;;;1.20;1.10;;;22.80;99.90;;;;;;5032356;28;20448;-83
2022/07/07 11:09:00;;;;;;;1.40;1.30;;;22.80;99.90;;;;;;5032292;28;20456;-84
2022/07/07 11:11:29;;;;;;;2.40;1.20;;;22.80;99.90;;;;;;5063871;28;20510;-84
2022/07/07 11:14:06;;;;;;;1.70;1.20;;;22.80;99.90;;;;;;5032373;28;20534;-84
2022/07/07 11:16:35;;;;;;;1.30;1.20;;;22.80;99.90;;;;;;5030636;28;20451;-85
2022/07/07 11:19:05;;;;;;;1.10;1.00;;;22.80;99.90;;;;;;5026520;28;20729;-87
2022/07/07 11:21:37;;;;;;;3.20;1.20;;;22.90;99.90;;;;;;5017416;28;20496;-85
2022/07/07 11:24:16;;;;;;;1.37;1.20;;;22.90;99.90;;;;;;5030394;28;20451;-85
2022/07/07 11:26:54;;;;;;;1.50;1.10;;;22.80;99.90;;;;;;5028242;28;20961;-85
2022/07/07 11:29:23;;;;;;;1.30;1.20;;;22.90;99.90;;;;;;5026744;28;20444;-84
2022/07/07 11:32:03;;;;;;;1.20;1.10;;;22.90;99.90;;;;;;5025320;28;20472;-86
2022/07/07 11:34:43;;;;;;;1.47;1.10;;;22.90;99.90;;;;;;5027371;28;20454;-84
2022/07/07 11:37:22;;;;;;;1.20;0.97;;;22.90;99.90;;;;;;5028821;28;20452;-86
2022/07/07 11:39:50;;;;;;;3.23;1.77;;;22.90;99.90;;;;;;5033155;28;20971;-82
2022/07/07 11:42:19;;;;;;;1.30;1.20;;;22.80;99.90;;;;;;5029990;28;20480;-83
2022/07/07 11:44:47;;;;;;;1.20;1.10;;;22.90;99.90;;;;;;5028754;28;20447;-82
2022/07/07 11:47:15;;;;;;;1.37;1.07;;;22.90;99.90;;;;;;5031422;28;20448;-84
2022/07/07 11:49:44;;;;;;;1.40;1.27;;;22.90;99.90;;;;;;5022810;28;20474;-84
2022/07/07 11:52:15;;;;;;;2.43;1.00;;;22.90;99.90;;;;;;5031663;28;20488;-86
2022/07/07 11:54:49;;;;;;;2.70;1.93;;;22.90;99.90;;;;;;5043306;28;20457;-84
2022/07/07 11:57:28;;;;;;;1.53;1.20;;;22.90;99.90;;;;;;5014220;28;20955;-85
2022/07/07 12:00:08;;;;;;;1.00;1.00;;;22.90;99.90;;;;;;5025073;28;20840;-85
2022/07/07 12:02:37;;;;;;;3.00;1.23;;;22.80;99.90;;;;;;5017409;28;20591;-84
2022/07/07 12:05:06;;;;;;;2.97;1.27;;;22.80;99.90;;;;;;5020034;28;20445;-83
2022/07/07 12:07:35;;;;;;;1.30;1.10;;;22.80;99.90;;;;;;5029259;28;20460;-83
2022/07/07 12:10:06;;;;;;;1.80;1.13;;;22.90;99.90;;;;;;5027982;28;20947;-83
2022/07/07 12:12:35;;;;;;;1.30;1.20;;;22.90;99.90;;;;;;5028393;28;20468;-83
2022/07/07 12:15:07;;;;;;;1.20;1.10;;;22.90;99.90;;;;;;5026667;28;20464;-86
2022/07/07 12:17:36;;;;;;;1.33;1.23;;;22.90;99.90;;;;;;5031826;28;20452;-83
2022/07/07 12:20:06;;;;;;;1.53;1.20;;;22.90;99.90;;;;;;5025104;28;20448;-84
2022/07/07 12:22:35;;;;;;;1.20;1.10;;;22.90;99.90;;;;;;5018183;28;20480;-81
2022/07/07 12:25:10;;;;;;;1.10;1.07;;;22.90;99.90;;;;;;5025154;28;20540;-82
2022/07/07 12:27:59;;;;;;;2.20;1.17;;;22.80;99.50;;;;;;5023425;28;20458;-81
2022/07/07 12:30:30;;;;;;;1.43;1.20;;;22.90;99.90;;;;;;5047635;28;21360;-81
2022/07/07 12:32:59;;;;;;;3.40;1.57;;;22.80;99.90;;;;;;5022904;28;20503;-81
2022/07/07 12:35:30;;;;;;;2.30;1.40;;;22.90;99.90;;;;;;5021046;28;20468;-81
2022/07/07 12:38:00;;;;;;;1.37;1.27;;;22.80;99.90;;;;;;5023513;28;20464;-81
2022/07/07 12:40:31;;;;;;;2.93;1.13;;;22.80;99.90;;;;;;5025929;28;20452;-81
2022/07/07 12:43:06;;;;;;;1.30;1.20;;;22.80;99.90;;;;;;5029167;28;20491;-82
2022/07/07 12:45:34;;;;;;;1.87;1.40;;;22.90;99.90;;;;;;5028418;28;20463;-81
2022/07/07 12:48:03;;;;;;;1.93;1.20;;;22.90;99.90;;;;;;5025815;28;20953;-83
2022/07/07 12:50:31;;;;;;;2.60;1.10;;;22.90;99.90;;;;;;5028159;28;20480;-81
2022/07/07 12:53:02;;;;;;;4.90;1.57;;;22.90;99.90;;;;;;5022478;28;20492;-80
2022/07/07 12:55:41;;;;;;;1.67;1.00;;;22.90;99.90;;;;;;5015380;28;20843;-82
2022/07/07 12:58:30;;;;;;;1.43;1.33;;;22.90;99.90;;;;;;5021756;28;20856;-81
2022/07/07 13:01:00;;;;;;;1.23;1.13;;;22.90;99.90;;;;;;5018354;28;20488;-81
2022/07/07 13:03:30;;;;;;;2.00;1.20;;;22.90;99.90;;;;;;5023014;28;20538;-81
2022/07/07 13:06:00;;;;;;;2.17;1.20;;;22.90;99.90;;;;;;5025235;28;20474;-81